Time;durP1;ratioP1;P1;durP2;ratioP2;P2;SDS_P1;SDS_P2;PMS_P1;PMS_P2;Temp;Humidity;BMP_temperature;BMP_pressure;BME280_temperature;BME280_humidity;BME280_pressure;Samples;Min_cycle;Max_cycle;Signal;HPM_P1;HPM_P2
2023/01/26 00:01:21;;;;;;;30.00;12.20;;;;;;;1.71;77.22;100629.69;6091139;23;22155;-85
2023/01/26 00:03:48;;;;;;;27.65;11.27;;;;;;;1.73;77.56;100630.47;6043999;23;20485;-85
2023/01/26 00:06:17;;;;;;;30.38;13.30;;;;;;;1.69;77.17;100629.75;6065980;23;20049;-85
2023/01/26 00:08:55;;;;;;;36.85;14.13;;;;;;;1.64;77.16;100623.81;6066775;23;20104;-85
2023/01/26 00:11:25;;;;;;;26.73;11.48;;;;;;;1.73;77.46;100619.97;6043016;23;20080;-85
2023/01/26 00:13:53;;;;;;;32.40;13.65;;;;;;;1.73;77.28;100609.50;6091496;23;20387;-85
2023/01/26 00:16:19;;;;;;;30.15;12.00;;;;;;;1.71;77.31;100609.59;6090625;23;20047;-86
2023/01/26 00:18:46;;;;;;;29.65;11.50;;;;;;;1.75;77.41;100618.16;6089364;23;20017;-85
2023/01/26 00:21:16;;;;;;;28.02;11.75;;;;;;;1.69;76.89;100610.56;6067331;23;20060;-85
2023/01/26 00:23:43;;;;;;;27.77;11.82;;;;;;;1.71;77.04;100603.50;6066600;23;20433;-85
2023/01/26 00:26:13;;;;;;;29.52;11.60;;;;;;;1.73;77.26;100601.66;6066397;23;20025;-85
2023/01/26 00:28:40;;;;;;;28.55;12.27;;;;;;;1.69;76.96;100598.31;6066820;23;20463;-85
2023/01/26 00:31:11;;;;;;;28.10;10.88;;;;;;;1.69;76.92;100600.09;6067480;23;20101;-85
2023/01/26 00:33:38;;;;;;;34.60;12.43;;;;;;;1.74;77.35;100596.38;6090124;23;20026;-85
2023/01/26 00:36:05;;;;;;;27.80;12.43;;;;;;;1.72;77.36;100590.34;6090636;23;20029;-85
2023/01/26 00:38:32;;;;;;;28.92;11.80;;;;;;;1.74;77.26;100592.91;6067062;23;20046;-85
2023/01/26 00:41:00;;;;;;;31.45;11.38;;;;;;;1.70;77.25;100592.16;6042871;23;20514;-85
2023/01/26 00:43:27;;;;;;;22.90;10.38;;;;;;;1.76;77.02;100588.47;6090606;23;20443;-85
2023/01/26 00:45:53;;;;;;;23.70;10.05;;;;;;;1.77;76.65;100590.16;6067780;23;20018;-85
2023/01/26 00:48:20;;;;;;;22.38;9.73;;;;;;;1.73;76.46;100586.81;6066945;23;20025;-85
2023/01/26 00:50:51;;;;;;;21.50;9.57;;;;;;;1.70;75.83;100584.31;6043151;23;20032;-85
2023/01/26 00:53:17;;;;;;;23.75;10.45;;;;;;;1.68;76.25;100594.00;6042719;23;20104;-85
2023/01/26 00:55:44;;;;;;;27.40;10.88;;;;;;;1.71;76.27;100593.88;6015958;23;20026;-85
2023/01/26 00:58:11;;;;;;;26.40;10.27;;;;;;;1.70;76.33;100586.06;6040723;23;20029;-85
2023/01/26 01:00:38;;;;;;;23.63;10.68;;;;;;;1.73;76.44;100578.09;6013890;23;20071;-85
2023/01/26 01:03:05;;;;;;;25.30;10.68;;;;;;;1.69;76.35;100579.16;6036576;23;20021;-85
2023/01/26 01:05:32;;;;;;;23.95;9.55;;;;;;;1.68;76.21;100580.03;6017111;23;20431;-85
2023/01/26 01:07:59;;;;;;;25.00;11.02;;;;;;;1.72;76.49;100586.88;6013217;23;20037;-85
2023/01/26 01:10:26;;;;;;;24.73;9.43;;;;;;;1.70;76.60;100586.91;6014777;23;20034;-85
2023/01/26 01:12:55;;;;;;;24.38;10.32;;;;;;;1.67;76.06;100581.81;6014298;23;20089;-85
2023/01/26 01:15:22;;;;;;;21.80;10.18;;;;;;;1.71;76.09;100585.19;6017556;23;20088;-85
2023/01/26 01:17:49;;;;;;;26.02;10.23;;;;;;;1.67;76.24;100581.81;6037094;23;20556;-85
2023/01/26 01:20:16;;;;;;;26.08;10.63;;;;;;;1.69;76.54;100576.53;6036160;23;20447;-85
2023/01/26 01:22:45;;;;;;;30.77;10.65;;;;;;;1.66;76.63;100576.66;6014112;23;20096;-85
2023/01/26 01:25:11;;;;;;;24.05;10.93;;;;;;;1.68;76.84;100575.69;6016138;23;20030;-85
2023/01/26 01:27:38;;;;;;;24.15;10.15;;;;;;;1.65;76.90;100574.94;6040442;23;20094;-86
2023/01/26 01:30:06;;;;;;;25.83;10.00;;;;;;;1.61;76.83;100568.97;6039604;23;20085;-85
2023/01/26 01:32:35;;;;;;;25.60;10.25;;;;;;;1.65;77.27;100560.06;6065090;23;20033;-85
2023/01/26 01:35:02;;;;;;;25.17;10.43;;;;;;;1.68;76.78;100565.22;6079732;23;20030;-85
2023/01/26 01:37:29;;;;;;;25.80;10.52;;;;;;;1.69;76.71;100566.06;6015925;23;20022;-84
2023/01/26 01:39:56;;;;;;;25.40;11.32;;;;;;;1.72;76.40;100568.53;5993162;23;20022;-85
2023/01/26 01:42:24;;;;;;;25.95;10.73;;;;;;;1.69;76.00;100576.53;6089210;23;20026;-85
2023/01/26 01:45:29;;;;;;;23.98;9.85;;;;;;;1.57;75.77;100572.63;6066112;23;20406;-85
2023/01/26 01:47:58;;;;;;;21.40;9.75;;;;;;;1.61;76.28;100565.50;5922558;23;20034;-85
2023/01/26 01:50:26;;;;;;;24.00;10.50;;;;;;;1.68;76.23;100564.34;6066146;23;20040;-85
2023/01/26 01:52:54;;;;;;;24.38;10.82;;;;;;;1.67;75.81;100562.63;6065962;23;20033;-85
2023/01/26 01:55:23;;;;;;;28.65;10.45;;;;;;;1.61;75.77;100568.97;6089116;23;20049;-85
2023/01/26 01:57:57;;;;;;;25.38;10.35;;;;;;;1.60;75.73;100566.41;6089783;23;20014;-85
2023/01/26 02:00:25;;;;;;;25.00;10.25;;;;;;;1.63;75.81;100561.03;6065872;23;20413;-85
2023/01/26 02:03:10;;;;;;;22.20;9.95;;;;;;;1.60;75.47;100561.19;6090021;23;20018;-85
2023/01/26 02:06:00;;;;;;;22.70;9.82;;;;;;;1.54;75.25;100564.91;5978811;23;20026;-85
2023/01/26 02:08:37;;;;;;;23.38;9.35;;;;;;;1.55;75.04;100563.13;5994770;23;20034;-85
2023/01/26 02:11:08;;;;;;;23.95;9.80;;;;;;;1.57;75.40;100561.31;6042568;23;20032;-85
2023/01/26 02:13:36;;;;;;;21.88;9.43;;;;;;;1.61;75.81;100555.03;6042368;23;20030;-85
2023/01/26 02:16:03;;;;;;;24.48;10.25;;;;;;;1.61;75.92;100550.66;6114229;23;20022;-85
2023/01/26 02:18:29;;;;;;;25.75;9.55;;;;;;;1.61;75.93;100548.03;6088509;23;20451;-85
2023/01/26 02:21:00;;;;;;;22.25;10.60;;;;;;;1.62;75.61;100546.25;6040239;23;20022;-85
2023/01/26 02:23:48;;;;;;;21.83;9.27;;;;;;;1.57;74.87;100545.59;6065518;23;20044;-85
2023/01/26 02:26:33;;;;;;;23.13;9.23;;;;;;;1.60;74.94;100546.31;5977996;23;20026;-85
2023/01/26 02:29:03;;;;;;;19.65;8.23;;;;;;;1.57;74.92;100545.59;6019179;23;20046;-85
2023/01/26 02:31:30;;;;;;;24.33;9.98;;;;;;;1.59;75.12;100549.84;6066048;23;20021;-85
2023/01/26 02:33:57;;;;;;;27.27;10.32;;;;;;;1.56;75.35;100538.69;6090087;23;20026;-85
2023/01/26 02:36:27;;;;;;;26.42;10.68;;;;;;;1.51;75.59;100537.06;6088255;23;20033;-85
2023/01/26 02:39:16;;;;;;;22.02;9.60;;;;;;;1.45;75.08;100531.22;6066086;23;20030;-85
2023/01/26 02:44:28;;;;;;;23.33;9.10;;;;;;;1.54;75.39;100530.03;6087332;23;20021;-84
2023/01/26 02:46:55;;;;;;;22.55;9.27;;;;;;;1.50;75.16;100517.06;6089172;23;20022;-85
2023/01/26 02:52:08;;;;;;;22.70;9.75;;;;;;;1.53;75.28;100516.09;6068622;23;20045;-85
2023/01/26 02:57:21;;;;;;;20.33;9.38;;;;;;;1.53;75.09;100516.09;6045729;23;20133;-85
2023/01/26 02:59:49;;;;;;;22.15;9.30;;;;;;;1.56;75.20;100508.09;6113784;23;20093;-85
2023/01/26 03:02:16;;;;;;;22.15;9.73;;;;;;;1.57;75.51;100504.56;6064950;23;20026;-84
2023/01/26 03:04:43;;;;;;;23.90;10.73;;;;;;;1.54;75.58;100499.47;6065684;23;20052;-85
2023/01/26 03:07:10;;;;;;;26.50;10.70;;;;;;;1.56;75.42;100508.09;6065143;23;20025;-85
2023/01/26 03:09:37;;;;;;;23.80;10.43;;;;;;;1.59;75.28;100501.91;6064902;23;20350;-85
2023/01/26 03:12:04;;;;;;;24.77;10.38;;;;;;;1.58;75.07;100494.94;6089773;23;20017;-85
2023/01/26 03:14:31;;;;;;;24.08;10.43;;;;;;;1.57;75.28;100493.25;6065504;23;20022;-85
2023/01/26 03:16:58;;;;;;;27.67;10.88;;;;;;;1.59;75.35;100492.28;6064550;23;20030;-85
2023/01/26 03:27:46;;;;;;;26.58;9.35;;;;;;;1.54;75.32;100485.53;6064621;23;20081;-85
2023/01/26 03:30:16;;;;;;;26.30;10.25;;;;;;;1.56;75.29;100486.31;6065919;23;20030;-86
2023/01/26 03:32:44;;;;;;;25.13;9.50;;;;;;;1.56;75.65;100483.72;6090076;23;20022;-84
2023/01/26 03:35:14;;;;;;;17.95;8.50;;;;;;;1.53;75.50;100487.31;6090361;23;20358;-85
2023/01/26 03:37:42;;;;;;;25.10;10.13;;;;;;;1.55;75.04;100485.44;6112185;23;20476;-85
2023/01/26 03:56:58;;;;;;;25.23;9.32;;;;;;;1.52;76.82;100478.56;6025045;23;20014;-85
2023/01/26 03:59:37;;;;;;;25.58;10.60;;;;;;;1.55;76.67;100474.97;6067521;23;20044;-85
2023/01/26 04:10:31;;;;;;;28.20;10.75;;;;;;;1.57;77.06;100462.69;5998329;23;20350;-85
2023/01/26 04:21:43;;;;;;;22.55;9.95;;;;;;;1.58;76.33;100458.28;5998763;23;20431;-85
2023/01/26 04:24:16;;;;;;;27.67;10.65;;;;;;;1.56;76.24;100455.75;6001506;23;20030;-85
2023/01/26 04:26:44;;;;;;;35.38;11.48;;;;;;;1.54;76.35;100456.75;6086252;23;20170;-85
2023/01/26 04:29:17;;;;;;;26.48;10.07;;;;;;;1.56;76.16;100450.53;6068211;23;20447;-85
2023/01/26 04:31:45;;;;;;;28.73;11.00;;;;;;;1.56;76.26;100455.75;6044553;23;20030;-85
2023/01/26 04:34:16;;;;;;;28.80;9.93;;;;;;;1.58;76.09;100453.06;6090904;23;20022;-85
2023/01/26 04:36:43;;;;;;;27.60;11.05;;;;;;;1.58;76.13;100453.94;6065022;23;20017;-85
2023/01/26 04:39:09;;;;;;;25.90;9.60;;;;;;;1.57;76.50;100446.97;6089573;23;20021;-85
2023/01/26 04:41:40;;;;;;;25.92;11.27;;;;;;;1.58;76.41;100446.09;6067616;23;20026;-85
2023/01/26 04:44:10;;;;;;;29.95;11.82;;;;;;;1.55;76.71;100450.56;6089045;23;20018;-85
2023/01/26 04:46:37;;;;;;;30.67;11.05;;;;;;;1.59;76.46;100441.69;6066107;23;20447;-84
2023/01/26 04:49:04;;;;;;;27.15;10.77;;;;;;;1.59;76.48;100445.16;6043444;23;20466;-84
2023/01/26 04:51:33;;;;;;;28.52;11.32;;;;;;;1.60;76.31;100446.00;6090291;23;20046;-84
2023/01/26 04:53:59;;;;;;;29.15;11.40;;;;;;;1.60;76.35;100443.38;6089608;23;20029;-83
2023/01/26 04:56:29;;;;;;;32.42;12.05;;;;;;;1.56;76.72;100449.69;6066049;23;20462;-84
2023/01/26 04:58:59;;;;;;;30.63;11.10;;;;;;;1.56;76.95;100440.06;6018352;23;20022;-84
2023/01/26 05:01:26;;;;;;;30.92;12.45;;;;;;;1.52;77.15;100434.06;6066071;23;20022;-84
2023/01/26 05:03:53;;;;;;;35.00;12.68;;;;;;;1.58;76.82;100438.22;6088754;23;20025;-84
2023/01/26 05:06:21;;;;;;;31.67;12.20;;;;;;;1.60;76.78;100439.00;6066332;23;20028;-84
2023/01/26 05:08:48;;;;;;;31.05;11.35;;;;;;;1.62;76.65;100446.78;6066741;23;20018;-83
2023/01/26 05:11:15;;;;;;;33.15;11.60;;;;;;;1.61;76.47;100440.72;6042696;23;20029;-84
2023/01/26 05:13:54;;;;;;;39.63;12.55;;;;;;;1.61;76.48;100432.88;6021219;23;20346;-84
2023/01/26 05:16:46;;;;;;;32.17;11.52;;;;;;;1.58;76.54;100442.59;6067703;23;20340;-83
2023/01/26 05:19:22;;;;;;;35.60;12.40;;;;;;;1.54;76.83;100441.03;6019958;23;20026;-83
2023/01/26 05:22:09;;;;;;;31.85;12.15;;;;;;;1.56;77.00;100444.44;6047279;23;20037;-83
2023/01/26 05:24:41;;;;;;;25.13;9.00;;;;;;;1.61;76.19;100450.34;6064833;23;20037;-83
2023/01/26 05:27:28;;;;;;;19.75;8.13;;;;;;;1.58;76.17;100446.09;6002694;23;20026;-83
2023/01/26 05:30:00;;;;;;;22.88;9.32;;;;;;;1.56;76.27;100445.28;6067250;23;20446;-83
2023/01/26 05:32:30;;;;;;;25.60;8.55;;;;;;;1.54;76.60;100448.88;6065503;23;20026;-83
2023/01/26 05:34:57;;;;;;;22.80;9.02;;;;;;;1.50;76.72;100448.13;6065024;23;20343;-83
2023/01/26 05:37:26;;;;;;;24.75;8.90;;;;;;;1.51;76.53;100453.31;6065369;23;20022;-84
2023/01/26 05:39:54;;;;;;;19.98;8.50;;;;;;;1.51;76.39;100453.31;6065206;23;20017;-84
2023/01/26 05:42:22;;;;;;;21.42;7.88;;;;;;;1.54;76.09;100447.13;6114964;23;20435;-84
2023/01/26 05:44:59;;;;;;;19.13;8.35;;;;;;;1.48;76.19;100453.47;6090578;23;20085;-83
2023/01/26 05:47:27;;;;;;;20.05;8.23;;;;;;;1.47;75.93;100449.13;6065767;23;20026;-83
2023/01/26 05:49:56;;;;;;;23.75;8.70;;;;;;;1.44;76.09;100437.94;6089499;23;20484;-83
2023/01/26 05:52:26;;;;;;;20.23;8.13;;;;;;;1.43;76.18;100447.56;6043760;23;20065;-83
2023/01/26 05:54:53;;;;;;;23.00;7.50;;;;;;;1.44;75.59;100451.03;6089853;23;20028;-83
2023/01/26 05:57:21;;;;;;;18.70;8.30;;;;;;;1.41;75.92;100449.38;6040675;23;20030;-83
2023/01/26 05:59:52;;;;;;;25.77;9.32;;;;;;;1.45;76.31;100450.97;6067232;23;20143;-82
2023/01/26 06:02:20;;;;;;;20.20;7.88;;;;;;;1.46;76.35;100447.44;6041850;23;20057;-83
2023/01/26 06:04:47;;;;;;;21.02;7.97;;;;;;;1.42;76.44;100440.59;6066178;23;20485;-83
2023/01/26 06:07:14;;;;;;;23.98;8.18;;;;;;;1.46;76.43;100441.34;6065225;23;20024;-82
2023/01/26 06:09:46;;;;;;;21.13;8.60;;;;;;;1.46;76.81;100443.97;6066263;23;20028;-83
2023/01/26 06:12:49;;;;;;;18.73;8.00;;;;;;;1.43;76.31;100447.56;5954420;23;20029;-83
2023/01/26 06:15:34;;;;;;;21.73;8.40;;;;;;;1.48;76.18;100448.22;6089261;23;20024;-82
2023/01/26 06:18:02;;;;;;;23.17;8.02;;;;;;;1.41;76.61;100443.31;6089509;23;20347;-83
2023/01/26 06:20:29;;;;;;;20.73;8.35;;;;;;;1.41;76.11;100448.53;6090086;23;20030;-83
2023/01/26 06:22:59;;;;;;;22.05;9.60;;;;;;;1.41;76.10;100441.53;6066465;23;20025;-83
2023/01/26 06:25:26;;;;;;;23.48;8.68;;;;;;;1.37;76.01;100449.56;6088552;23;20885;-82
2023/01/26 06:27:56;;;;;;;21.73;8.48;;;;;;;1.39;76.30;100448.59;6065092;23;20327;-83
2023/01/26 06:30:26;;;;;;;19.00;7.70;;;;;;;1.27;76.89;100449.97;6090054;23;20025;-81
2023/01/26 06:32:57;;;;;;;25.17;8.52;;;;;;;1.38;76.48;100449.50;6089563;23;20022;-81
2023/01/26 06:35:26;;;;;;;21.67;9.00;;;;;;;1.37;76.34;100449.56;6088774;23;20489;-81
2023/01/26 06:37:55;;;;;;;24.00;9.45;;;;;;;1.36;76.09;100451.34;6113378;23;20338;-81
2023/01/26 06:40:22;;;;;;;21.10;8.45;;;;;;;1.41;76.15;100448.53;6089180;23;20022;-82
2023/01/26 06:42:50;;;;;;;18.52;8.20;;;;;;;1.43;76.37;100444.09;6065336;23;20334;-81
2023/01/26 06:45:19;;;;;;;24.15;9.05;;;;;;;1.43;76.15;100451.94;6064685;23;20037;-81
2023/01/26 06:47:50;;;;;;;26.27;10.13;;;;;;;1.39;76.55;100447.75;6112839;23;20026;-81
2023/01/26 06:50:20;;;;;;;24.15;8.52;;;;;;;1.40;76.72;100452.03;6112851;23;20021;-81
2023/01/26 06:52:50;;;;;;;21.60;8.02;;;;;;;1.36;76.72;100453.94;6065312;23;20033;-81
2023/01/26 06:55:52;;;;;;;24.15;9.02;;;;;;;1.42;76.84;100464.16;5949811;23;20355;-81
2023/01/26 06:58:31;;;;;;;26.77;10.25;;;;;;;1.34;76.62;100454.94;6044507;23;20434;-82
2023/01/26 07:01:08;;;;;;;21.38;8.73;;;;;;;1.37;76.97;100460.03;6088460;23;20026;-81
2023/01/26 07:03:34;;;;;;;24.10;8.52;;;;;;;1.36;76.75;100467.03;6113254;23;20029;-82
2023/01/26 07:06:01;;;;;;;23.52;9.85;;;;;;;1.39;76.60;100463.44;6113416;23;20038;-81
2023/01/26 07:08:28;;;;;;;23.95;9.40;;;;;;;1.37;76.88;100465.25;6112583;23;20037;-81
2023/01/26 07:10:54;;;;;;;25.13;9.63;;;;;;;1.38;76.69;100465.22;6089618;23;20034;-81
2023/01/26 07:13:21;;;;;;;24.15;8.25;;;;;;;1.40;76.69;100467.75;6089364;23;20026;-81
2023/01/26 07:15:48;;;;;;;26.90;9.85;;;;;;;1.40;76.78;100468.63;6087769;23;20025;-81
2023/01/26 07:18:14;;;;;;;25.05;9.23;;;;;;;1.44;76.67;100467.56;6112851;23;20334;-81
2023/01/26 07:20:41;;;;;;;23.17;8.38;;;;;;;1.44;76.89;100471.97;6087542;23;20022;-81
2023/01/26 07:23:08;;;;;;;26.67;9.57;;;;;;;1.43;77.11;100471.13;6063582;23;20081;-81
2023/01/26 07:25:35;;;;;;;28.30;10.48;;;;;;;1.48;76.79;100474.41;6088046;23;20522;-81
2023/01/26 07:28:01;;;;;;;33.65;11.23;;;;;;;1.45;77.05;100477.16;6065085;23;20018;-82
2023/01/26 07:30:28;;;;;;;26.00;10.15;;;;;;;1.45;77.26;100474.53;6066713;23;20296;-82
2023/01/26 07:32:58;;;;;;;23.05;8.95;;;;;;;1.46;76.94;100475.38;6067145;23;20025;-81
2023/01/26 07:35:25;;;;;;;24.92;9.27;;;;;;;1.47;77.03;100470.06;6090342;23;20073;-81
2023/01/26 07:37:51;;;;;;;22.70;9.82;;;;;;;1.50;76.95;100479.53;6090556;23;20100;-81
2023/01/26 07:40:18;;;;;;;25.27;9.85;;;;;;;1.48;77.06;100469.16;6115301;23;20037;-82
2023/01/26 07:42:45;;;;;;;25.88;10.15;;;;;;;1.48;77.33;100476.16;6090995;23;20021;-81
2023/01/26 07:45:38;;;;;;;28.30;10.02;;;;;;;1.46;77.41;100473.59;6054529;23;20050;-81
2023/01/26 07:48:05;;;;;;;24.30;8.98;;;;;;;1.45;77.33;100474.53;6114396;23;20481;-81
2023/01/26 07:50:32;;;;;;;24.60;9.55;;;;;;;1.51;77.12;100469.03;6065976;23;20112;-81
2023/01/26 07:53:01;;;;;;;22.65;7.97;;;;;;;1.48;76.88;100474.41;6112693;23;20024;-81
2023/01/26 07:55:28;;;;;;;28.30;9.35;;;;;;;1.49;77.21;100476.09;6067113;23;20021;-81
2023/01/26 07:57:56;;;;;;;25.88;9.32;;;;;;;1.51;77.31;100474.25;6041749;23;20473;-82
2023/01/26 08:00:23;;;;;;;22.17;9.20;;;;;;;1.48;76.87;100477.00;6077975;23;20024;-81
2023/01/26 08:02:50;;;;;;;23.58;10.02;;;;;;;1.50;77.34;100477.81;6058226;23;20080;-81
2023/01/26 08:05:17;;;;;;;32.08;9.95;;;;;;;1.49;77.65;100475.25;6041509;23;20513;-81
2023/01/26 08:07:43;;;;;;;25.92;8.98;;;;;;;1.46;77.45;100473.59;6055378;23;20026;-82
2023/01/26 08:10:11;;;;;;;26.42;8.95;;;;;;;1.52;77.24;100475.09;6057021;23;20018;-81
2023/01/26 08:12:38;;;;;;;24.83;9.48;;;;;;;1.50;77.07;100472.56;6064454;23;20096;-81
2023/01/26 08:15:07;;;;;;;29.08;9.05;;;;;;;1.51;77.03;100476.03;6039328;23;20023;-81
2023/01/26 08:17:34;;;;;;;26.23;10.60;;;;;;;1.50;77.15;100469.97;6055472;23;20034;-81
2023/01/26 08:20:00;;;;;;;23.98;9.85;;;;;;;1.53;76.87;100468.97;6040881;23;20065;-81
2023/01/26 08:22:27;;;;;;;25.98;9.10;;;;;;;1.52;76.83;100470.72;6039670;23;20108;-81
2023/01/26 08:24:54;;;;;;;25.90;10.07;;;;;;;1.55;77.11;100476.75;6056594;23;20022;-81
2023/01/26 08:27:21;;;;;;;23.00;9.43;;;;;;;1.57;76.94;100467.91;6063443;23;20034;-80
2023/01/26 08:29:50;;;;;;;26.73;9.73;;;;;;;1.54;77.02;100464.59;6032659;23;20041;-82
2023/01/26 08:32:17;;;;;;;25.75;10.00;;;;;;;1.47;77.43;100475.28;6105691;23;20030;-81
2023/01/26 08:34:43;;;;;;;25.75;8.90;;;;;;;1.52;77.46;100475.94;6080217;23;20376;-81
2023/01/26 08:37:10;;;;;;;24.25;9.68;;;;;;;1.50;77.44;100469.06;5990356;23;20026;-81
2023/01/26 08:39:37;;;;;;;27.13;9.77;;;;;;;1.51;77.44;100468.19;6013402;23;20030;-81
2023/01/26 08:42:04;;;;;;;26.55;9.60;;;;;;;1.50;77.35;100475.19;6038041;23;20041;-81
2023/01/26 08:44:30;;;;;;;25.42;9.35;;;;;;;1.54;77.28;100482.91;6036403;23;20054;-81
2023/01/26 08:46:57;;;;;;;27.17;10.60;;;;;;;1.54;77.19;100472.44;6039206;23;20097;-82
2023/01/26 08:49:24;;;;;;;30.60;10.25;;;;;;;1.53;77.13;100468.97;6041881;23;20022;-81
2023/01/26 08:51:51;;;;;;;24.50;8.65;;;;;;;1.52;76.90;100475.94;6056435;23;20624;-81
2023/01/26 08:54:17;;;;;;;21.27;8.43;;;;;;;1.55;76.89;100471.50;6041371;23;20034;-81
2023/01/26 08:56:44;;;;;;;26.95;10.10;;;;;;;1.54;77.16;100477.69;6105070;23;20026;-81
2023/01/26 08:59:11;;;;;;;25.10;8.73;;;;;;;1.49;77.24;100470.84;6039658;23;20022;-81
2023/01/26 09:01:38;;;;;;;21.83;9.05;;;;;;;1.52;76.95;100470.72;6079036;23;20492;-81
2023/01/26 09:04:04;;;;;;;25.73;9.18;;;;;;;1.51;76.91;100469.03;6081641;23;20032;-81
2023/01/26 09:06:32;;;;;;;22.05;8.70;;;;;;;1.50;77.09;100467.34;6079277;23;20459;-81
2023/01/26 09:08:58;;;;;;;24.40;9.15;;;;;;;1.52;76.89;100465.47;6032130;23;20093;-81
2023/01/26 09:11:25;;;;;;;21.05;8.73;;;;;;;1.55;77.29;100469.75;6089595;23;20028;-81
2023/01/26 09:13:55;;;;;;;22.23;8.52;;;;;;;1.54;76.88;100470.66;6089389;23;20025;-81
2023/01/26 09:16:23;;;;;;;21.65;8.23;;;;;;;1.54;76.85;100470.66;6082965;23;20018;-82
2023/01/26 09:18:50;;;;;;;22.25;8.85;;;;;;;1.52;76.92;100475.09;6040635;23;20029;-81
2023/01/26 09:21:18;;;;;;;20.10;7.93;;;;;;;1.52;77.00;100473.34;6057099;23;20045;-81
2023/01/26 09:23:45;;;;;;;24.08;8.57;;;;;;;1.58;76.71;100480.13;6080034;23;20026;-82
2023/01/26 09:26:11;;;;;;;20.15;7.72;;;;;;;1.56;76.34;100471.47;6037845;23;20050;-81
2023/01/26 09:28:38;;;;;;;19.77;7.35;;;;;;;1.59;76.28;100476.56;6079308;23;20033;-81
2023/01/26 09:31:07;;;;;;;24.52;7.55;;;;;;;1.60;75.76;100472.19;6079196;23;20042;-82
2023/01/26 09:33:34;;;;;;;19.92;7.90;;;;;;;1.59;75.70;100473.09;6079102;23;20443;-82
2023/01/26 09:36:07;;;;;;;21.27;7.85;;;;;;;1.57;75.49;100469.69;6062610;23;20014;-81
2023/01/26 09:38:34;;;;;;;21.25;7.97;;;;;;;1.62;75.87;100467.72;6020835;23;20027;-81
2023/01/26 09:41:09;;;;;;;20.75;7.93;;;;;;;1.63;75.99;100479.91;6007310;23;20123;-81
2023/01/26 09:43:40;;;;;;;20.45;8.93;;;;;;;1.63;75.84;100477.28;5981510;23;20026;-81
2023/01/26 09:46:31;;;;;;;19.05;6.75;;;;;;;1.57;74.98;100477.53;6029124;23;20097;-81
2023/01/26 09:49:06;;;;;;;15.77;6.32;;;;;;;1.45;74.45;100477.16;5967152;23;20764;-81
2023/01/26 09:51:39;;;;;;;14.82;6.18;;;;;;;1.51;74.89;100471.66;6058776;23;20055;-81
2023/01/26 09:54:36;;;;;;;18.17;6.20;;;;;;;1.43;74.38;100473.72;5959140;23;20053;-82
2023/01/26 09:57:15;;;;;;;18.35;7.05;;;;;;;1.52;74.48;100472.50;5980271;23;20026;-81
2023/01/26 09:59:54;;;;;;;15.75;5.57;;;;;;;1.60;74.78;100472.19;6034985;23;20050;-81
2023/01/26 10:02:35;;;;;;;17.15;7.15;;;;;;;1.61;74.65;100474.75;6010669;23;20030;-81
2023/01/26 10:05:13;;;;;;;19.60;6.95;;;;;;;1.57;74.67;100472.31;6034920;23;20019;-81
2023/01/26 10:07:44;;;;;;;19.35;8.13;;;;;;;1.53;75.27;100466.34;6005352;23;20022;-81
2023/01/26 10:10:21;;;;;;;15.93;7.07;;;;;;;1.61;74.72;100469.50;6020278;23;20054;-81
2023/01/26 10:12:49;;;;;;;20.40;7.95;;;;;;;1.59;75.22;100475.72;6006088;23;20021;-81
2023/01/26 10:15:42;;;;;;;19.92;7.78;;;;;;;1.53;74.99;100474.22;6040582;23;20350;-81
2023/01/26 10:18:17;;;;;;;19.08;6.60;;;;;;;1.62;74.72;100472.97;6043526;23;20022;-81
2023/01/26 10:20:49;;;;;;;16.00;6.22;;;;;;;1.67;75.07;100471.84;6039722;23;20041;-81
2023/01/26 10:23:22;;;;;;;26.85;7.32;;;;;;;1.60;74.63;100465.16;6059665;23;20026;-81
2023/01/26 10:25:50;;;;;;;15.47;5.63;;;;;;;1.62;74.58;100463.34;6055460;23;20053;-81
2023/01/26 10:28:21;;;;;;;17.92;6.93;;;;;;;1.66;74.94;100459.69;6029378;23;20026;-81
2023/01/26 10:30:50;;;;;;;22.13;7.85;;;;;;;1.68;74.51;100459.63;6063979;23;20018;-81
2023/01/26 10:33:19;;;;;;;20.98;7.05;;;;;;;1.71;74.34;100452.50;6065471;23;20347;-81
2023/01/26 10:35:46;;;;;;;18.88;7.90;;;;;;;1.71;74.48;100443.81;6077153;23;20029;-81
2023/01/26 10:38:46;;;;;;;16.90;6.88;;;;;;;1.65;74.14;100455.34;6058950;23;20019;-81
2023/01/26 10:41:13;;;;;;;19.75;6.15;;;;;;;1.68;74.49;100446.53;5947618;23;20021;-82
2023/01/26 10:43:40;;;;;;;14.25;5.85;;;;;;;1.68;74.18;100447.41;6079789;23;20021;-81
2023/01/26 10:46:23;;;;;;;23.05;7.20;;;;;;;1.63;74.24;100451.09;6062611;23;20033;-81
2023/01/26 10:48:56;;;;;;;15.80;6.25;;;;;;;1.66;74.10;100443.16;5993168;23;20513;-82
2023/01/26 10:51:30;;;;;;;19.90;7.40;;;;;;;1.68;74.09;100446.53;6057230;23;20036;-80
2023/01/26 10:54:25;;;;;;;18.42;7.28;;;;;;;1.61;73.57;100445.94;6036898;23;20021;-81
2023/01/26 10:57:01;;;;;;;17.60;7.22;;;;;;;1.67;74.02;100440.44;6038635;23;20328;-81
2023/01/26 10:59:47;;;;;;;24.00;8.10;;;;;;;1.64;74.53;100435.34;6061057;23;20033;-82
2023/01/26 11:02:14;;;;;;;18.58;6.85;;;;;;;1.65;74.57;100433.56;6049087;23;20482;-81
2023/01/26 11:04:40;;;;;;;16.50;6.85;;;;;;;1.60;74.60;100432.91;6077673;23;20387;-81
2023/01/26 11:07:31;;;;;;;16.50;6.45;;;;;;;1.60;74.72;100431.13;6037049;23;20029;-81
2023/01/26 11:10:16;;;;;;;18.05;7.43;;;;;;;1.59;75.03;100420.75;6041291;23;20033;-81
2023/01/26 11:12:43;;;;;;;18.60;6.70;;;;;;;1.63;75.08;100423.19;6009665;23;20454;-81
2023/01/26 11:15:18;;;;;;;17.90;6.95;;;;;;;1.67;74.99;100418.66;6063406;23;20025;-81
2023/01/26 11:18:09;;;;;;;20.25;7.57;;;;;;;1.62;75.18;100418.00;6088765;23;20014;-81
2023/01/26 11:20:55;;;;;;;18.95;7.18;;;;;;;1.66;75.42;100419.59;6013598;23;20476;-81
2023/01/26 11:23:45;;;;;;;19.27;7.72;;;;;;;1.64;75.10;100410.94;5970578;23;20030;-81
2023/01/26 11:26:41;;;;;;;20.83;7.72;;;;;;;1.71;75.28;100418.47;6063284;23;20024;-81
2023/01/26 11:29:31;;;;;;;21.55;7.57;;;;;;;1.66;75.55;100417.81;5998461;23;20163;-81
2023/01/26 11:32:37;;;;;;;15.18;6.93;;;;;;;1.64;75.61;100424.03;6059671;23;20025;-81
2023/01/26 11:35:30;;;;;;;16.20;6.15;;;;;;;1.59;76.09;100412.91;5929239;23;20028;-81
2023/01/26 11:38:09;;;;;;;19.25;6.40;;;;;;;1.65;76.27;100415.25;5971216;23;20026;-81
2023/01/26 11:40:46;;;;;;;17.95;6.47;;;;;;;1.58;76.40;100413.78;6007467;23;20026;-82
2023/01/26 11:43:19;;;;;;;17.70;6.95;;;;;;;1.59;76.38;100410.28;6034154;23;20022;-81
2023/01/26 11:46:04;;;;;;;17.15;7.15;;;;;;;1.60;76.39;100397.09;6033886;23;20416;-81
2023/01/26 11:48:52;;;;;;;19.50;6.65;;;;;;;1.59;76.45;100395.41;5964876;23;21449;-81
2023/01/26 11:51:30;;;;;;;14.45;6.07;;;;;;;1.62;76.15;100392.66;6013467;23;20023;-81
2023/01/26 11:54:29;;;;;;;17.80;7.05;;;;;;;1.64;76.49;100387.38;6035840;23;20089;-81
2023/01/26 11:57:21;;;;;;;18.00;6.38;;;;;;;1.56;76.51;100382.47;6035104;23;20021;-81
2023/01/26 11:59:51;;;;;;;15.95;6.68;;;;;;;1.65;76.54;100386.44;5979939;23;20405;-81
2023/01/26 12:02:33;;;;;;;14.32;5.88;;;;;;;1.62;76.71;100386.59;6063406;23;20109;-81
2023/01/26 12:05:04;;;;;;;13.52;5.80;;;;;;;1.70;76.02;100379.25;6064326;23;20036;-81
2023/01/26 12:07:50;;;;;;;15.48;5.20;;;;;;;1.64;75.91;100379.53;6054457;23;20026;-81
2023/01/26 12:10:19;;;;;;;12.60;5.20;;;;;;;1.51;76.50;100385.28;6014846;23;20030;-81
2023/01/26 12:12:50;;;;;;;13.75;4.95;;;;;;;1.42;76.70;100379.56;6053310;23;20034;-82
2023/01/26 12:15:28;;;;;;;12.45;5.55;;;;;;;1.47;76.82;100372.38;6087644;23;20026;-81
2023/01/26 12:18:01;;;;;;;12.95;5.63;;;;;;;1.47;76.58;100377.63;6064339;23;20025;-81
2023/01/26 12:20:38;;;;;;;;;;;;;;;1.44;76.44;100372.50;6090702;23;20048;-81
2023/01/26 12:23:20;;;;;;;12.27;5.30;;;;;;;1.48;76.58;100369.72;6040435;23;21265;-81
2023/01/26 12:25:58;;;;;;;13.00;6.03;;;;;;;1.51;76.49;100360.88;6064735;23;20022;-81
2023/01/26 12:28:41;;;;;;;12.25;5.68;;;;;;;1.50;76.05;100362.66;6065537;23;20038;-81
2023/01/26 12:31:19;;;;;;;12.30;5.40;;;;;;;1.51;76.09;100353.88;6040650;23;20038;-82
2023/01/26 12:33:49;;;;;;;15.52;6.10;;;;;;;1.54;76.16;100350.28;6090009;23;20034;-81